createdAt,value
2023-03-29T00:00:12.581Z,6.40
2023-03-29T00:02:40.706Z,4.03
2023-03-29T00:05:10.680Z,4.40
2023-03-29T00:07:38.351Z,4.60
2023-03-29T00:10:07.634Z,3.90
2023-03-29T00:12:35.615Z,4.30
2023-03-29T00:15:04.214Z,4.30
2023-03-29T00:17:31.440Z,4.40
2023-03-29T00:19:59.989Z,3.93
2023-03-29T00:22:28.205Z,4.20
2023-03-29T00:24:55.795Z,4.87
2023-03-29T00:27:23.590Z,5.10
2023-03-29T00:29:51.445Z,6.37
2023-03-29T00:32:19.944Z,4.60
2023-03-29T00:34:50.938Z,9.00
2023-03-29T00:37:19.083Z,5.00
2023-03-29T00:39:47.176Z,4.03
2023-03-29T00:42:16.334Z,4.07
2023-03-29T00:45:12.240Z,4.47
2023-03-29T00:47:44.072Z,7.07
2023-03-29T00:50:16.061Z,3.70
2023-03-29T00:52:47.785Z,5.83
2023-03-29T00:55:20.117Z,4.80
2023-03-29T00:57:49.643Z,7.53
2023-03-29T01:00:19.733Z,4.90
2023-03-29T01:03:24.643Z,4.33
2023-03-29T01:05:58.349Z,8.30
2023-03-29T01:08:35.460Z,4.17
2023-03-29T01:11:08.770Z,5.90
2023-03-29T01:13:44.848Z,3.70
2023-03-29T01:16:11.694Z,6.28
2023-03-29T01:18:39.896Z,4.03
2023-03-29T01:21:22.291Z,3.67
2023-03-29T01:23:58.238Z,3.87
2023-03-29T01:26:51.958Z,4.63
2023-03-29T01:29:25.916Z,4.60
2023-03-29T01:32:11.807Z,6.43
2023-03-29T01:34:46.209Z,6.50
2023-03-29T01:37:18.446Z,3.87
2023-03-29T01:39:47.305Z,4.50
2023-03-29T01:42:27.756Z,7.57
2023-03-29T01:45:00.503Z,5.07
2023-03-29T01:48:01.356Z,6.23
2023-03-29T01:50:50.849Z,5.77
2023-03-29T01:53:24.306Z,5.03
2023-03-29T01:55:56.058Z,5.30
2023-03-29T01:58:26.688Z,5.63
2023-03-29T02:00:55.656Z,5.07
2023-03-29T02:03:25.464Z,4.07
2023-03-29T02:05:53.505Z,5.17
2023-03-29T02:08:21.425Z,5.73
2023-03-29T02:10:48.954Z,5.00
2023-03-29T02:13:18.262Z,4.47
2023-03-29T02:15:47.230Z,7.40
2023-03-29T02:18:15.930Z,8.23
2023-03-29T02:20:47.286Z,5.63
2023-03-29T02:23:41.144Z,4.80
2023-03-29T02:26:09.024Z,5.93
2023-03-29T02:28:37.109Z,8.63
2023-03-29T02:31:34.020Z,4.67
2023-03-29T02:34:08.883Z,4.40
2023-03-29T02:36:38.511Z,6.40
2023-03-29T02:39:08.196Z,7.80
2023-03-29T02:41:35.017Z,5.50
2023-03-29T02:44:02.750Z,6.33
2023-03-29T02:46:30.645Z,8.07
2023-03-29T02:48:58.408Z,5.60
2023-03-29T02:51:29.896Z,5.40
2023-03-29T02:54:03.445Z,5.47
2023-03-29T02:56:31.721Z,7.07
2023-03-29T02:58:59.278Z,10.77
2023-03-29T03:01:27.439Z,8.67
2023-03-29T03:03:55.513Z,8.63
2023-03-29T03:06:24.113Z,9.07
2023-03-29T03:08:52.242Z,7.80
2023-03-29T03:11:20.274Z,8.53
2023-03-29T03:13:48.060Z,9.80
2023-03-29T03:16:16.193Z,6.53
2023-03-29T03:18:47.226Z,6.07
2023-03-29T03:21:15.195Z,8.67
2023-03-29T03:23:43.568Z,9.47
2023-03-29T03:26:11.084Z,10.83
2023-03-29T03:28:38.951Z,9.37
2023-03-29T03:31:07.506Z,8.17
2023-03-29T03:33:35.537Z,10.57
2023-03-29T03:36:06.993Z,9.63
2023-03-29T03:38:35.205Z,10.67
2023-03-29T03:41:03.163Z,10.27
2023-03-29T03:43:31.394Z,7.83
2023-03-29T03:45:59.614Z,8.53
2023-03-29T03:48:27.363Z,8.93
2023-03-29T03:50:55.955Z,8.50
2023-03-29T03:53:26.335Z,11.67
2023-03-29T03:55:54.294Z,6.30
2023-03-29T03:58:22.098Z,12.23
2023-03-29T04:00:50.280Z,6.90
2023-03-29T04:03:18.824Z,9.47
2023-03-29T04:05:46.601Z,7.57
2023-03-29T04:08:14.684Z,15.90
2023-03-29T04:10:42.641Z,10.80
2023-03-29T04:13:10.971Z,7.07
2023-03-29T04:15:39.080Z,5.03
2023-03-29T04:18:07.789Z,6.30
2023-03-29T04:20:35.945Z,8.47
2023-03-29T04:23:03.965Z,7.57
2023-03-29T04:25:31.839Z,7.07
2023-03-29T04:27:59.357Z,7.47
2023-03-29T04:30:27.060Z,13.47
2023-03-29T04:32:55.019Z,6.60
2023-03-29T04:35:22.956Z,6.43
2023-03-29T04:37:51.227Z,7.57
2023-03-29T04:40:19.627Z,7.17
2023-03-29T04:42:47.877Z,8.73
2023-03-29T04:45:18.087Z,6.93
2023-03-29T04:47:47.202Z,11.43
2023-03-29T04:50:15.798Z,7.60
2023-03-29T04:52:45.549Z,9.20
2023-03-29T04:55:13.542Z,7.20
2023-03-29T04:57:41.332Z,12.33
2023-03-29T05:00:15.588Z,14.17
2023-03-29T05:02:44.242Z,11.10
2023-03-29T05:05:12.396Z,11.20
2023-03-29T05:07:40.194Z,8.60
2023-03-29T05:10:09.309Z,14.33
2023-03-29T05:12:37.188Z,7.87
2023-03-29T05:15:11.513Z,7.43
2023-03-29T05:17:39.488Z,7.57
2023-03-29T05:20:11.730Z,9.37
2023-03-29T05:22:39.135Z,11.83
2023-03-29T05:25:08.722Z,8.67
2023-03-29T05:27:37.076Z,6.47
2023-03-29T05:30:06.808Z,7.73
2023-03-29T05:32:34.638Z,7.37
2023-03-29T05:35:02.634Z,10.00
2023-03-29T05:37:30.832Z,6.80
2023-03-29T05:40:05.921Z,7.20
2023-03-29T05:42:34.612Z,8.07
2023-03-29T05:45:02.723Z,9.50
2023-03-29T05:47:30.682Z,7.23
2023-03-29T05:49:58.343Z,11.23
2023-03-29T05:52:26.144Z,9.33
2023-03-29T05:54:54.105Z,11.03
2023-03-29T05:57:21.698Z,9.70
2023-03-29T05:59:49.203Z,10.97
2023-03-29T06:02:17.077Z,8.30
2023-03-29T06:04:45.022Z,9.93
2023-03-29T06:07:12.879Z,7.70
2023-03-29T06:09:41.678Z,10.40
2023-03-29T06:12:09.893Z,14.57
2023-03-29T06:14:37.755Z,9.80
2023-03-29T06:17:06.134Z,10.87
2023-03-29T06:19:34.067Z,17.60
2023-03-29T06:22:02.137Z,9.33
2023-03-29T06:24:29.960Z,8.27
2023-03-29T06:26:58.233Z,15.17
2023-03-29T06:29:27.026Z,7.97
2023-03-29T06:31:57.836Z,7.53
2023-03-29T06:34:25.966Z,8.87
2023-03-29T06:36:54.827Z,6.93
2023-03-29T06:39:22.727Z,9.13
2023-03-29T06:41:51.059Z,7.70
2023-03-29T06:44:18.973Z,12.73
2023-03-29T06:46:46.623Z,10.00
2023-03-29T06:49:14.816Z,8.07
2023-03-29T06:51:43.528Z,14.53
2023-03-29T06:54:11.733Z,8.87
2023-03-29T06:56:40.292Z,10.13
2023-03-29T06:59:08.601Z,8.00
2023-03-29T07:01:39.097Z,6.70
2023-03-29T07:04:09.706Z,7.63
2023-03-29T07:06:39.859Z,9.53
2023-03-29T07:09:10.383Z,6.10
2023-03-29T07:11:39.664Z,7.43
2023-03-29T07:14:08.484Z,10.27
2023-03-29T07:16:38.209Z,9.33
2023-03-29T07:19:06.872Z,12.30
2023-03-29T07:21:36.705Z,7.53
2023-03-29T07:24:07.584Z,8.93
2023-03-29T07:26:40.481Z,9.10
2023-03-29T07:29:12.439Z,13.20
2023-03-29T07:31:42.258Z,9.80
2023-03-29T07:34:13.850Z,9.43
2023-03-29T07:36:44.109Z,9.13
2023-03-29T07:39:15.869Z,8.30
2023-03-29T07:41:44.321Z,10.73
2023-03-29T07:44:12.520Z,8.23
2023-03-29T07:46:43.347Z,7.67
2023-03-29T07:49:11.001Z,7.30
2023-03-29T07:51:39.498Z,10.97
2023-03-29T07:54:08.373Z,8.83
2023-03-29T07:56:36.132Z,7.60
2023-03-29T07:59:04.054Z,5.87
2023-03-29T08:01:32.813Z,12.37
2023-03-29T08:04:00.940Z,10.83
2023-03-29T08:06:28.699Z,7.93
2023-03-29T08:08:56.372Z,8.53
2023-03-29T08:11:24.697Z,9.73
2023-03-29T08:13:53.069Z,8.00
2023-03-29T08:16:20.762Z,11.30
2023-03-29T08:18:49.383Z,11.07
2023-03-29T08:21:17.175Z,12.17
2023-03-29T08:23:44.630Z,8.77
2023-03-29T08:26:12.416Z,10.17
2023-03-29T08:28:40.498Z,9.33
2023-03-29T08:31:08.665Z,11.00
2023-03-29T08:33:37.133Z,14.47
2023-03-29T08:36:06.716Z,9.27
2023-03-29T08:38:34.871Z,8.77
2023-03-29T08:41:02.771Z,11.07
2023-03-29T08:43:53.806Z,10.63
2023-03-29T08:46:42.423Z,6.57
2023-03-29T08:49:09.291Z,7.80
2023-03-29T08:51:43.285Z,5.27
2023-03-29T08:54:18.820Z,8.33
2023-03-29T08:56:47.817Z,9.33
2023-03-29T08:59:44.030Z,6.57
2023-03-29T09:02:32.955Z,6.40
2023-03-29T09:05:08.595Z,8.50
2023-03-29T09:07:36.535Z,5.83
2023-03-29T09:10:05.181Z,6.70
2023-03-29T09:12:32.082Z,11.23
2023-03-29T09:15:28.834Z,6.10
2023-03-29T09:18:36.683Z,6.73
2023-03-29T09:21:23.442Z,5.47
2023-03-29T09:24:02.212Z,8.32
2023-03-29T09:27:01.143Z,4.83
2023-03-29T09:29:31.053Z,6.23
2023-03-29T09:32:04.292Z,6.93
2023-03-29T09:34:36.243Z,8.00
2023-03-29T09:37:22.380Z,5.17
2023-03-29T09:39:50.086Z,7.60
2023-03-29T09:42:17.955Z,5.80
2023-03-29T09:44:51.979Z,5.60
2023-03-29T09:47:28.970Z,7.97
2023-03-29T09:50:30.197Z,6.57
2023-03-29T09:52:59.058Z,7.87
2023-03-29T09:55:28.287Z,6.47
2023-03-29T09:58:08.055Z,4.60
2023-03-29T10:00:35.502Z,5.17
2023-03-29T10:03:03.526Z,5.60
2023-03-29T10:05:32.064Z,5.70
2023-03-29T10:08:00.518Z,7.57
2023-03-29T10:10:32.502Z,7.00
2023-03-29T10:13:13.698Z,5.73
2023-03-29T10:16:03.503Z,6.20
2023-03-29T10:18:33.030Z,9.37
2023-03-29T10:21:01.929Z,5.87
2023-03-29T10:23:34.533Z,9.80
2023-03-29T10:26:04.429Z,7.40
2023-03-29T10:28:32.120Z,7.00
2023-03-29T10:31:01.014Z,6.30
2023-03-29T10:33:34.135Z,6.10
2023-03-29T10:36:06.907Z,7.70
2023-03-29T10:38:35.115Z,7.00
2023-03-29T10:41:10.152Z,9.00
2023-03-29T10:43:39.541Z,6.47
2023-03-29T10:46:31.391Z,7.03
2023-03-29T10:48:59.181Z,8.63
2023-03-29T10:51:31.434Z,7.43
2023-03-29T10:53:59.679Z,7.17
2023-03-29T10:56:27.131Z,7.43
2023-03-29T10:58:59.523Z,6.57
2023-03-29T11:01:48.855Z,7.93
2023-03-29T11:04:18.878Z,6.47
2023-03-29T11:06:45.502Z,6.03
2023-03-29T11:09:49.872Z,4.83
2023-03-29T11:12:51.278Z,6.10
2023-03-29T11:15:30.061Z,5.53
2023-03-29T11:18:34.486Z,4.83
2023-03-29T11:21:40.081Z,4.73
2023-03-29T11:24:15.788Z,4.83
2023-03-29T11:26:49.624Z,5.40
2023-03-29T11:29:44.610Z,5.43
2023-03-29T11:32:17.887Z,6.10
2023-03-29T11:35:12.760Z,6.37
2023-03-29T11:37:49.807Z,8.17
2023-03-29T11:40:23.512Z,7.27
2023-03-29T11:42:51.582Z,6.27
2023-03-29T11:45:28.503Z,4.40
2023-03-29T11:47:59.669Z,6.03
2023-03-29T11:50:42.280Z,7.60
2023-03-29T11:53:11.688Z,4.07
2023-03-29T11:55:41.479Z,8.80
2023-03-29T11:58:31.436Z,7.17
2023-03-29T12:01:01.781Z,9.10
2023-03-29T12:03:46.744Z,7.00
2023-03-29T12:06:20.037Z,9.50
2023-03-29T12:09:01.739Z,5.93
2023-03-29T12:11:54.851Z,5.07
2023-03-29T12:14:27.362Z,5.60
2023-03-29T12:17:05.836Z,3.67
2023-03-29T12:19:42.731Z,6.67
2023-03-29T12:22:11.271Z,4.80
2023-03-29T12:24:40.594Z,5.27
2023-03-29T12:27:10.583Z,5.90
2023-03-29T12:30:34.449Z,9.30
2023-03-29T12:33:28.317Z,7.20
2023-03-29T12:35:55.420Z,4.00
2023-03-29T12:38:23.067Z,5.23
2023-03-29T12:40:55.521Z,6.40
2023-03-29T12:43:28.286Z,4.73
2023-03-29T12:45:58.693Z,11.47
2023-03-29T12:48:27.298Z,5.63
2023-03-29T12:50:57.323Z,7.47
2023-03-29T12:53:28.897Z,5.17
2023-03-29T12:55:56.846Z,7.53
2023-03-29T12:58:28.037Z,7.63
2023-03-29T13:01:06.900Z,6.23
2023-03-29T13:03:40.052Z,7.53
2023-03-29T13:06:09.321Z,9.50
2023-03-29T13:08:44.725Z,5.97
2023-03-29T13:11:24.776Z,6.60
2023-03-29T13:13:52.358Z,7.50
2023-03-29T13:16:20.458Z,6.47
2023-03-29T13:18:56.297Z,7.80
2023-03-29T13:21:47.963Z,6.35
2023-03-29T13:24:33.776Z,7.93
2023-03-29T13:27:06.685Z,3.43
2023-03-29T13:29:51.757Z,4.40
2023-03-29T13:33:02.973Z,6.07
2023-03-29T13:36:08.727Z,3.10
2023-03-29T13:38:51.675Z,7.43
2023-03-29T13:41:44.545Z,6.57
2023-03-29T13:44:29.770Z,4.93
2023-03-29T13:47:30.104Z,4.22
2023-03-29T13:49:58.556Z,7.07
2023-03-29T13:52:29.088Z,4.43
2023-03-29T13:55:08.634Z,7.68
2023-03-29T13:57:42.608Z,5.10
2023-03-29T14:00:18.662Z,7.82
2023-03-29T14:02:55.885Z,6.60
2023-03-29T14:05:29.435Z,2.95
2023-03-29T14:07:57.358Z,4.78
2023-03-29T14:10:46.755Z,8.25
2023-03-29T14:13:15.269Z,4.82
2023-03-29T14:15:52.995Z,4.70
2023-03-29T14:18:24.292Z,9.05
2023-03-29T14:20:54.891Z,5.03
2023-03-29T14:23:25.705Z,6.72
2023-03-29T14:25:53.645Z,7.28
2023-03-29T14:28:44.927Z,7.47
2023-03-29T14:31:42.212Z,4.95
2023-03-29T14:34:17.096Z,8.20
2023-03-29T14:36:48.888Z,3.42
2023-03-29T14:39:17.492Z,6.57
2023-03-29T14:41:53.946Z,5.25
2023-03-29T14:44:22.593Z,4.60
2023-03-29T14:46:49.630Z,4.75
2023-03-29T14:49:17.885Z,6.17
2023-03-29T14:51:45.508Z,8.00
2023-03-29T14:54:33.286Z,8.07
2023-03-29T14:57:09.718Z,3.33
2023-03-29T14:59:38.681Z,7.40
2023-03-29T15:02:07.367Z,5.55
2023-03-29T15:04:39.694Z,5.85
2023-03-29T15:07:08.275Z,8.45
2023-03-29T15:09:36.241Z,4.43
2023-03-29T15:12:04.057Z,7.00
2023-03-29T15:14:34.750Z,6.70
2023-03-29T15:17:14.953Z,7.07
2023-03-29T15:19:43.127Z,6.07
2023-03-29T15:22:11.477Z,8.73
2023-03-29T15:24:47.991Z,5.27
2023-03-29T15:27:19.721Z,7.77
2023-03-29T15:29:47.441Z,7.27
2023-03-29T15:32:22.571Z,6.73
2023-03-29T15:35:00.614Z,8.90
2023-03-29T15:37:28.287Z,5.40
2023-03-29T15:39:56.465Z,5.47
2023-03-29T15:42:24.509Z,9.33
2023-03-29T15:44:56.592Z,6.67
2023-03-29T15:47:24.179Z,6.63
2023-03-29T15:49:51.816Z,5.50
2023-03-29T15:52:20.442Z,6.30
2023-03-29T15:54:48.653Z,7.00
2023-03-29T15:57:15.880Z,9.07
2023-03-29T15:59:43.387Z,6.07
2023-03-29T16:02:15.875Z,8.73
2023-03-29T16:04:43.338Z,8.43
2023-03-29T16:07:15.155Z,10.00
2023-03-29T16:09:42.780Z,8.13
2023-03-29T16:12:10.809Z,11.67
2023-03-29T16:14:38.125Z,5.90
2023-03-29T16:17:25.579Z,9.90
2023-03-29T16:19:53.823Z,8.90
2023-03-29T16:22:21.899Z,14.23
2023-03-29T16:24:49.699Z,6.93
2023-03-29T16:27:20.912Z,7.20
2023-03-29T16:29:49.226Z,9.10
2023-03-29T16:32:16.820Z,10.43
2023-03-29T16:34:44.727Z,9.07
2023-03-29T16:37:15.201Z,9.57
2023-03-29T16:39:43.549Z,12.97
2023-03-29T16:42:11.365Z,7.57
2023-03-29T16:44:42.092Z,11.13
2023-03-29T16:47:13.070Z,5.57
2023-03-29T16:49:41.480Z,9.40
2023-03-29T16:52:10.382Z,7.00
2023-03-29T16:54:38.619Z,8.17
2023-03-29T16:57:08.402Z,7.27
2023-03-29T16:59:36.301Z,10.57
2023-03-29T17:02:07.564Z,9.37
2023-03-29T17:04:36.197Z,9.03
2023-03-29T17:07:03.799Z,11.63
2023-03-29T17:09:32.235Z,11.00
2023-03-29T17:12:00.236Z,9.83
2023-03-29T17:14:28.354Z,8.73
2023-03-29T17:16:56.091Z,8.07
2023-03-29T17:19:23.955Z,11.43
2023-03-29T17:21:51.848Z,9.00
2023-03-29T17:24:19.809Z,16.17
2023-03-29T17:26:47.379Z,7.07
2023-03-29T17:29:15.539Z,10.10
2023-03-29T17:31:47.865Z,8.40
2023-03-29T17:34:16.949Z,7.20
2023-03-29T17:36:45.796Z,10.97
2023-03-29T17:39:18.768Z,9.70
2023-03-29T17:41:47.109Z,6.93
2023-03-29T17:44:15.390Z,6.13
2023-03-29T17:46:46.335Z,9.40
2023-03-29T17:49:17.884Z,11.07
2023-03-29T17:51:47.999Z,15.27
2023-03-29T17:54:16.631Z,9.87
2023-03-29T17:56:44.413Z,10.50
2023-03-29T17:59:13.204Z,10.03
2023-03-29T18:01:41.825Z,9.23
2023-03-29T18:04:27.180Z,14.40
2023-03-29T18:06:56.373Z,11.97
2023-03-29T18:09:26.013Z,11.03
2023-03-29T18:12:04.561Z,14.33
2023-03-29T18:14:49.968Z,9.63
2023-03-29T18:17:20.931Z,11.33
2023-03-29T18:19:51.545Z,13.03
2023-03-29T18:25:14.970Z,9.97
2023-03-29T18:30:30.656Z,9.65
2023-03-29T18:33:02.860Z,11.43
2023-03-29T18:35:31.650Z,15.50
2023-03-29T18:38:03.447Z,17.50
2023-03-29T18:40:32.172Z,13.33
2023-03-29T18:43:06.763Z,14.33
2023-03-29T18:45:53.473Z,13.43
2023-03-29T18:48:22.150Z,11.52
2023-03-29T18:50:54.539Z,12.10
2023-03-29T18:53:22.497Z,11.90
2023-03-29T18:55:50.703Z,14.10
2023-03-29T18:58:20.488Z,9.73
2023-03-29T19:00:52.790Z,10.57
2023-03-29T19:03:21.130Z,12.13
2023-03-29T19:09:10.129Z,10.57
2023-03-29T19:11:44.732Z,10.63
2023-03-29T19:14:14.800Z,9.60
2023-03-29T19:16:42.960Z,11.57
2023-03-29T19:19:11.321Z,11.17
2023-03-29T19:24:33.416Z,11.20
2023-03-29T19:27:01.920Z,9.77
2023-03-29T19:29:35.106Z,14.97
2023-03-29T19:32:02.820Z,15.23
2023-03-29T19:34:31.136Z,9.70
2023-03-29T19:37:00.440Z,11.73
2023-03-29T19:39:30.501Z,14.23
2023-03-29T19:41:58.508Z,8.63
2023-03-29T19:44:28.540Z,11.63
2023-03-29T19:46:56.786Z,11.17
2023-03-29T19:49:25.349Z,12.37
2023-03-29T19:51:55.102Z,14.67
2023-03-29T19:54:23.574Z,11.20
2023-03-29T19:56:52.852Z,13.23
2023-03-29T19:59:21.138Z,10.47
2023-03-29T20:01:51.875Z,9.83
2023-03-29T20:04:20.026Z,11.83
2023-03-29T20:06:47.278Z,14.97
2023-03-29T20:09:16.801Z,13.17
2023-03-29T20:11:44.611Z,15.93
2023-03-29T20:14:12.419Z,10.67
2023-03-29T20:16:41.020Z,12.67
2023-03-29T20:19:09.833Z,9.57
2023-03-29T20:21:37.556Z,22.20
2023-03-29T20:24:09.429Z,13.37
2023-03-29T20:26:37.502Z,12.97
2023-03-29T20:29:05.354Z,11.83
2023-03-29T20:31:33.584Z,10.87
2023-03-29T20:34:01.864Z,10.07
2023-03-29T20:36:32.460Z,11.47
2023-03-29T20:39:01.848Z,12.40
2023-03-29T20:41:34.857Z,11.47
2023-03-29T20:44:03.363Z,12.00
2023-03-29T20:46:34.446Z,10.93
2023-03-29T20:49:05.378Z,8.70
2023-03-29T20:51:33.711Z,11.03
2023-03-29T20:54:04.870Z,12.77
2023-03-29T20:56:40.048Z,15.97
2023-03-29T20:59:17.130Z,11.23
2023-03-29T21:01:45.558Z,10.37
2023-03-29T21:04:13.576Z,13.90
2023-03-29T21:06:42.244Z,10.30
2023-03-29T21:09:10.149Z,11.57
2023-03-29T21:11:38.743Z,9.37
2023-03-29T21:14:08.026Z,11.07
2023-03-29T21:16:36.289Z,14.23
2023-03-29T21:19:04.466Z,9.03
2023-03-29T21:21:33.736Z,9.40
2023-03-29T21:24:02.323Z,13.13
2023-03-29T21:26:30.614Z,10.47
2023-03-29T21:28:58.510Z,10.90
2023-03-29T21:31:30.136Z,9.60
2023-03-29T21:34:04.207Z,8.43
2023-03-29T21:36:40.402Z,9.13
2023-03-29T21:39:10.293Z,15.10
2023-03-29T21:41:45.207Z,7.70
2023-03-29T21:44:18.120Z,7.73
2023-03-29T21:46:47.341Z,8.67
2023-03-29T21:49:16.582Z,9.00
2023-03-29T21:51:44.653Z,9.17
2023-03-29T21:54:13.250Z,9.17
2023-03-29T21:56:41.502Z,9.47
2023-03-29T21:59:09.595Z,10.80
2023-03-29T22:01:38.006Z,9.10
2023-03-29T22:04:06.275Z,11.93
2023-03-29T22:06:34.941Z,9.77
2023-03-29T22:09:03.214Z,8.10
2023-03-29T22:11:31.875Z,6.87
2023-03-29T22:14:00.664Z,12.90
2023-03-29T22:16:40.209Z,15.40
2023-03-29T22:19:14.408Z,11.13
2023-03-29T22:21:43.337Z,10.10
2023-03-29T22:24:16.810Z,13.43
2023-03-29T22:26:55.869Z,10.13
2023-03-29T22:29:24.039Z,12.47
2023-03-29T22:31:53.198Z,11.37
2023-03-29T22:34:21.092Z,11.63
2023-03-29T22:36:57.472Z,14.13
2023-03-29T22:39:25.468Z,12.82
2023-03-29T22:41:53.935Z,13.70
2023-03-29T22:44:21.474Z,12.13
2023-03-29T22:46:49.067Z,9.20
2023-03-29T22:52:27.824Z,12.87
2023-03-29T22:54:56.033Z,11.20
2023-03-29T22:57:24.915Z,12.93
2023-03-29T22:59:53.647Z,13.93
2023-03-29T23:02:22.235Z,11.23
2023-03-29T23:04:56.082Z,11.30
2023-03-29T23:07:24.614Z,12.10
2023-03-29T23:09:53.148Z,14.97
2023-03-29T23:12:24.693Z,13.40
2023-03-29T23:14:53.689Z,13.00
2023-03-29T23:17:22.031Z,13.60
2023-03-29T23:19:56.086Z,18.07
2023-03-29T23:22:24.398Z,22.53
2023-03-29T23:24:52.045Z,23.83
2023-03-29T23:27:26.061Z,24.17
2023-03-29T23:29:55.425Z,26.70
2023-03-29T23:32:23.049Z,22.27
2023-03-29T23:34:51.635Z,19.40
2023-03-29T23:37:19.639Z,23.00
2023-03-29T23:39:48.342Z,22.33
2023-03-29T23:42:16.340Z,19.10
2023-03-29T23:44:48.103Z,15.47
2023-03-29T23:47:17.049Z,17.40
2023-03-29T23:49:45.499Z,17.87
2023-03-29T23:52:14.191Z,21.67
2023-03-29T23:54:42.596Z,17.60
2023-03-29T23:57:28.958Z,21.17
